Nearby METAR Reports

 

KDCA - Washington/Natl, Washington D.c., USA
Distance from station: NE 2mi, 3km
Updated: Thu, 18-Jan-2018 5:52am EST
Clear
Clear
 Wind from WNW
Wind: WNW 9 mph , 15 km/h
Temperature: 19°F , -7°C
Wind Chill: 8°F , -13°C
Dew Point: 7°F , -14°C
Humidity: 58%
Barometer: 30.20 inHg , 1022.7 hPa
Clouds: Clear
Visibility: 10 miles , 16 km
2018/01/18 10:52 KDCA 181052Z 30008KT 10SM CLR M07/M14 A3020 RMK AO2 SLP225 T10671144
KDAA - Fort Belvoir/Dav, Virginia, USA
Distance from station: SW 10mi, 16km
Updated: Thu, 18-Jan-2018 5:56am EST
Clear
Clear
 Wind from NW
Wind: NW 12 mph , 19 km/h
Temperature: 19°F , -7°C
Wind Chill: 6°F , -14°C
Dew Point: 3°F , -16°C
Humidity: 49%
Barometer: 30.19 inHg , 1022.4 hPa
Clouds: Clear
Visibility: 10 miles , 16 km
2018/01/18 10:56 KDAA 181056Z AUTO 32010KT 10SM CLR M07/M16 A3019 RMK AO2 SLP228 T10661158 $
 
KIAD - Wash Dc/Dulles, Virginia, USA
Distance from station: WNW 22mi, 35km
Updated: Thu, 18-Jan-2018 5:52am EST
Few Clouds
Few Clouds
 Wind from NW
Wind: NW 15 mph , 24 km/h
Temperature: 19°F , -7°C
Wind Chill: 5°F , -15°C
Dew Point: 5°F , -15°C
Humidity: 53%
Barometer: 30.18 inHg , 1022 hPa
Clouds: Few Clouds
Visibility: 10 miles , 16 km
Cloud details: Few Clouds 10000 ft
2018/01/18 10:52 KIAD 181052Z 32013KT 10SM FEW100 M07/M15 A3018 RMK AO2 SLP222 T10721150
KHEF - Manassas Muni, Virginia, USA
Distance from station: WSW 26mi, 41km
Updated: Thu, 18-Jan-2018 5:56am EST
Clear
Clear
 Wind from calm
Wind: Calm
Temperature: 12°F , -11°C
Dew Point: 3°F , -16°C
Humidity: 67%
Barometer: 30.19 inHg , 1022.4 hPa
Clouds: Clear
Visibility: 10 miles , 16 km
2018/01/18 10:56 KHEF 181056Z AUTO 00000KT 10SM CLR M11/M16 A3019 RMK AO2 SLP236 T11061161 FZRANO PNO $
 
KRMN - Stafford Regnl, Virginia, USA
Distance from station: SW 36mi, 59km
Updated: Thu, 18-Jan-2018 6:35am EST
Clear
Clear
 Wind from calm
Wind: Calm
Temperature: 12°F , -11°C
Dew Point: 9°F , -13°C
Humidity: 85%
Barometer: 30.25 inHg , 1024.4 hPa
Clouds: Clear
Visibility: 10 miles , 16 km
2018/01/18 11:35 KRMN 181135Z AUTO 00000KT 10SM CLR M11/M13 A3025 RMK AO2 T11141132
KNYG - Quantico Mcaf, Virginia, USA
Distance from station: SSW 26mi, 42km
Updated: Wed, 17-Jan-2018 8:56pm EST
NOT Current
Partly Cloudy
Partly Cloudy
 Wind from N
Wind: N 14 mph , 22 km/h, Gust: 22 mph , 35 km/h
Temperature: 25°F , -4°C
Wind Chill: 13°F , -11°C
Dew Point: 7°F , -14°C
Humidity: 46%
Barometer: 30.33 inHg , 1027.1 hPa
Clouds: Partly Cloudy
Visibility: 10 miles , 16 km
Cloud details: Partly Cloudy 10000 ft
Partly Cloudy 25000 ft
2018/01/18 01:56 KNYG 180156Z 36012G19KT 10SM SCT100 SCT250 M04/M14 A3033 RMK A02 SLP271 HRD FRZ WRNG T10391139
 
KJYO - Leesburg/Godfrey, Virginia, USA
Distance from station: WNW 31mi, 51km
Updated: Thu, 18-Jan-2018 6:35am EST
Clear
Clear
 Wind from NW
Wind: NW 10 mph , 17 km/h
Temperature: 21°F , -6°C
Wind Chill: 10°F , -12°C
Dew Point: 9°F , -13°C
Humidity: 58%
Barometer: 30.19 inHg , 1022.4 hPa
Clouds: Clear
Visibility: 10 miles , 16 km
2018/01/18 11:35 KJYO 181135Z AUTO 31009KT 10SM CLR M06/M13 A3019 RMK AO2
KCJR - Culpeper, Virginia, USA
Distance from station: WSW 48mi, 77km
Updated: Thu, 18-Jan-2018 6:35am EST
Clear
Clear
 Wind from calm
Wind: Calm
Temperature: 10°F , -12°C
Dew Point: 5°F , -15°C
Humidity: 79%
Barometer: 30.20 inHg , 1022.7 hPa
Clouds: Clear
Visibility: 10 miles , 16 km
2018/01/18 11:35 KCJR 181135Z AUTO 00000KT 10SM CLR M12/M15 A3020 RMK AO2 T11191152
 
KHWY - Warrenton, Virginia, USA
Distance from station: WSW 39mi, 63km
Updated: Thu, 18-Jan-2018 6:35am EST
Clear
Clear
 Wind from calm
Wind: Calm
Temperature: 10°F , -12°C
Dew Point: 5°F , -15°C
Humidity: 79%
Barometer: 30.18 inHg , 1022 hPa
Clouds: Clear
Visibility: 10 miles , 16 km
2018/01/18 11:35 KHWY 181135Z AUTO 00000KT 10SM CLR M12/M15 A3018 RMK AO2 T11211153
KADW - Andrews Afb, Maryland, USA
Distance from station: E 11mi, 17km
Updated: Thu, 18-Jan-2018 5:56am EST
Clear
Clear
 Wind from WNW
Wind: WNW 10 mph , 17 km/h, Gust: 20 mph , 31 km/h
Temperature: 18°F , -8°C
Wind Chill: 6°F , -14°C
Dew Point: 5°F , -15°C
Humidity: 58%
Barometer: 30.16 inHg , 1021.3 hPa
Clouds: Clear
Visibility: 10 miles , 16 km
2018/01/18 10:56 KADW 181056Z AUTO 30009G17KT 10SM CLR M08/M15 A3016 RMK AO2 SLP224 T10781149 $
 
KCGS - College Park, Maryland, USA
Distance from station: NE 13mi, 21km
Updated: Thu, 18-Jan-2018 6:37am EST
Clear
Clear
 Wind from W
Wind: W 3 mph , 6 km/h
Temperature: 19°F , -7°C
Dew Point: 5°F , -15°C
Humidity: 53%
Barometer: 30.19 inHg , 1022.4 hPa
Clouds: Clear
Visibility: 10 miles , 16 km
2018/01/18 11:37 KCGS 181137Z AUTO 27003KT 10SM CLR M07/M15 A3019 RMK AO1 T10751154
KFME - Fort Meade, Maryland, USA
Distance from station: NE 24mi, 38km
Updated: Thu, 18-Jan-2018 6:36am EST
Clear
Clear
 Wind from WNW
Wind: WNW 5 mph , 7 km/h
Temperature: 14°F , -10°C
Wind Chill: 6°F , -14°C
Dew Point: 9°F , -13°C
Humidity: 79%
Barometer: 30.20 inHg , 1022.7 hPa
Clouds: Clear
Visibility: 10 miles , 16 km
2018/01/18 11:36 KFME 181136Z AUTO 29004KT 10SM CLR M10/M13 A3020 RMK AO1
 
KGAI - Gaithersburg, Maryland, USA
Distance from station: NNW 24mi, 38km
Updated: Thu, 18-Jan-2018 5:56am EST
Clear
Clear
 Wind from WNW
Wind: WNW 14 mph , 22 km/h, Gust: 21 mph , 33 km/h
Temperature: 16°F , -9°C
Wind Chill: 2°F , -17°C
Dew Point: 5°F , -15°C
Humidity: 62%
Barometer: 30.14 inHg , 1020.7 hPa
Clouds: Clear
Visibility: 10 miles , 16 km
2018/01/18 10:56 KGAI 181056Z AUTO 30012G18KT 10SM CLR M09/M15 A3014 RMK AO2 SLP238 T10891150 FZRANO
KBWI - Balto/Wash Intl, Maryland, USA
Distance from station: NE 31mi, 50km
Updated: Thu, 18-Jan-2018 5:54am EST
Few Clouds
Few Clouds
 Wind from SW
Wind: SW 3 mph , 6 km/h
Temperature: 14°F , -10°C
Dew Point: 7°F , -14°C
Humidity: 73%
Barometer: 30.16 inHg , 1021.3 hPa
Clouds: Few Clouds
Visibility: 10 miles , 16 km
Cloud details: Few Clouds 13000 ft
2018/01/18 10:54 KBWI 181054Z 22003KT 10SM FEW130 M10/M14 A3016 RMK AO2 SLP217 T11001139
 
KNAK - Annapolis/Naval, Maryland, USA
Distance from station: ENE 33mi, 53km
Updated: Thu, 18-Jan-2018 5:54am EST
Clear
Clear
 Wind from W
Wind: W 3 mph , 6 km/h
Temperature: 19°F , -7°C
Dew Point: 9°F , -13°C
Humidity: 63%
Barometer: 30.18 inHg , 1022 hPa
Clouds: Clear
Visibility: 10 miles , 16 km
2018/01/18 10:54 KNAK 181054Z AUTO 28003KT 10SM CLR M07/M13 A3018 RMK AO2 SLP220 T10671133 $
KDMH - Baltimore/Dwntwn, Maryland, USA
Distance from station: NE 39mi, 63km
Updated: Thu, 18-Jan-2018 5:54am EST

 
Temperature: 19°F , -7°C
Dew Point: 7°F , -14°C
Humidity: 58%
Barometer: 30.16 inHg , 1021.3 hPa
2018/01/18 10:54 KDMH 181054Z AUTO M07/M14 A3016 RMK AO1 SLP214 T10671144
 
KW29 - Stevensville, Maryland, USA
Distance from station: ENE 41mi, 65km
Updated: Thu, 18-Jan-2018 6:35am EST
Clear
Clear
 Wind from WNW
Wind: WNW 7 mph , 11 km/h
Temperature: 19°F , -7°C
Wind Chill: 10°F , -12°C
Dew Point: 9°F , -13°C
Humidity: 63%
Barometer: 30.19 inHg , 1022.4 hPa
Clouds: Clear
Visibility: 10 miles , 16 km
2018/01/18 11:35 KW29 181135Z AUTO 30006KT 10SM CLR M07/M13 A3019 RMK AO2
KFDK - Frederick, Maryland, USA
Distance from station: NNW 43mi, 70km
Updated: Thu, 18-Jan-2018 6:35am EST
Clear
Clear
 Wind from W
Wind: W 9 mph , 15 km/h
Temperature: 21°F , -6°C
Wind Chill: 11°F , -12°C
Dew Point: 3°F , -16°C
Humidity: 45%
Barometer: 30.19 inHg , 1022.4 hPa
Clouds: Clear
Visibility: 10 miles , 16 km
2018/01/18 11:35 KFDK 181135Z AUTO 27008KT 10SM CLR M06/M16 A3019 RMK AO2
 
KEZF - Fredericksb/Shan, Virginia, USA
Distance from station: SSW 44mi, 71km
Updated: Thu, 18-Jan-2018 6:35am EST
Clear
Clear
 Wind from WSW
Wind: WSW 3 mph , 6 km/h
Temperature: 16°F , -9°C
Dew Point: 10°F , -12°C
Humidity: 79%
Barometer: 30.21 inHg , 1023 hPa
Clouds: Clear
Visibility: 10 miles , 16 km
2018/01/18 11:35 KEZF 181135Z AUTO 24003KT 10SM CLR M09/M12 A3021 RMK AO2 T10921125
K2W6 - St Marys (duke), Maryland, USA
Distance from station: SE 45mi, 73km
Updated: Thu, 18-Jan-2018 6:37am EST
Clear
Clear
 Wind from WNW
Wind: WNW 3 mph , 6 km/h
Temperature: 19°F , -7°C
Dew Point: 9°F , -13°C
Humidity: 63%
Barometer: 30.20 inHg , 1022.7 hPa
Clouds: Clear
Visibility: 10 miles , 16 km
2018/01/18 11:37 K2W6 181137Z AUTO 30003KT 10SM CLR M07/M13 A3020 RMK AO1

Metar display script from Saratoga-Weather.org